Terminal Aerodrome Forecast
Issued by NWS Detroit/Pontiac, MI

Home | Current Version | Previous Version | Text Only | Print | Product List | Glossary On
Versions: 1 2 3 4 5 6 7 8 9 10 11 12 13 14 15 16 17 18 19 20 21 22 23 24 25 26
000
FTUS43 KDTX 250841 AAA
TAFDTW
TAF AMD
KDTW 250841Z 2509/2612 20007KT P6SM SCT040 OVC080
     FM251000 24005KT 5SM BR BKN022 OVC040
     FM251400 28012KT P6SM SCT050
     FM260100 26005KT P6SM SKC=

USA.gov is the U.S. government's official web portal to all federal, state and local government web resources and services.